Time;durP1;ratioP1;P1;durP2;ratioP2;P2;SDS_P1;SDS_P2;PMS_P1;PMS_P2;Temp;Humidity;BMP_temperature;BMP_pressure;BME280_temperature;BME280_humidity;BME280_pressure;Samples;Min_cycle;Max_cycle;Signal;HPM_P1;HPM_P2
2023/01/02 00:01:37;;;;;;;5.32;2.58;;;;;;;;;;5016643;28;20469;-76
2023/01/02 00:04:03;;;;;;;10.10;3.20;;;;;;;;;;5000653;28;20045;-77
2023/01/02 00:06:32;;;;;;;4.85;2.55;;;;;;;;;;5034819;28;20073;-76
2023/01/02 00:08:58;;;;;;;8.40;2.83;;;;;;;;;;5034804;28;20041;-77
2023/01/02 00:11:24;;;;;;;7.45;3.00;;;;;;;;;;5016774;28;20512;-77
2023/01/02 00:13:50;;;;;;;7.05;3.10;;;;;;;;;;5016949;28;20060;-77
2023/01/02 00:16:16;;;;;;;8.52;3.00;;;;;;;;;;5016435;28;20049;-77
2023/01/02 00:18:42;;;;;;;11.23;3.20;;;;;;;;;;5030373;28;20046;-77
2023/01/02 00:21:09;;;;;;;4.25;2.75;;;;;;;;;;4996856;28;20045;-78
2023/01/02 00:23:35;;;;;;;6.35;2.95;;;;;;;;;;5026887;28;20099;-78
2023/01/02 00:26:01;;;;;;;7.43;2.95;;;;;;;;;;5017100;28;20488;-77
2023/01/02 00:28:28;;;;;;;6.22;3.03;;;;;;;;;;5034496;28;20521;-77
2023/01/02 00:30:54;;;;;;;6.45;3.20;;;;;;;;;;5038929;28;20076;-76
2023/01/02 00:33:20;;;;;;;8.23;3.40;;;;;;;;;;5039415;28;20049;-77
2023/01/02 00:35:46;;;;;;;8.30;2.95;;;;;;;;;;5036034;28;20045;-76
2023/01/02 00:38:12;;;;;;;6.53;2.80;;;;;;;;;;5034257;28;20080;-76
2023/01/02 00:40:38;;;;;;;8.98;3.00;;;;;;;;;;5034332;28;20065;-76
2023/01/02 00:43:05;;;;;;;7.90;3.20;;;;;;;;;;5034041;28;20048;-76
2023/01/02 00:45:31;;;;;;;4.75;2.75;;;;;;;;;;5034028;28;20072;-76
2023/01/02 00:47:57;;;;;;;6.60;3.00;;;;;;;;;;5016476;28;20139;-76
2023/01/02 00:50:23;;;;;;;8.02;3.15;;;;;;;;;;5015864;28;20053;-77
2023/01/02 00:52:49;;;;;;;9.75;3.28;;;;;;;;;;5033504;28;20788;-77
2023/01/02 00:55:15;;;;;;;7.75;2.95;;;;;;;;;;5015896;28;20509;-78
2023/01/02 00:57:41;;;;;;;8.05;3.15;;;;;;;;;;5033842;28;20474;-77
2023/01/02 01:00:07;;;;;;;7.03;3.05;;;;;;;;;;5033992;28;20095;-78
2023/01/02 01:02:33;;;;;;;7.95;3.65;;;;;;;;;;5016229;28;20042;-77
2023/01/02 01:04:59;;;;;;;7.47;3.70;;;;;;;;;;5015609;28;20042;-78
2023/01/02 01:07:25;;;;;;;6.63;3.30;;;;;;;;;;5015727;28;20457;-78
2023/01/02 01:09:51;;;;;;;7.63;3.17;;;;;;;;;;5015905;28;20548;-78
2023/01/02 01:12:17;;;;;;;6.18;3.15;;;;;;;;;;5033943;28;20049;-77
2023/01/02 01:14:43;;;;;;;6.03;2.95;;;;;;;;;;5015921;28;20042;-78
2023/01/02 01:17:09;;;;;;;9.38;3.45;;;;;;;;;;5015748;28;20050;-78
2023/01/02 01:19:36;;;;;;;9.50;3.63;;;;;;;;;;5001822;28;20085;-78
2023/01/02 01:22:02;;;;;;;8.50;3.55;;;;;;;;;;5013766;28;20108;-78
2023/01/02 01:24:28;;;;;;;5.60;4.00;;;;;;;;;;5027120;28;20046;-78
2023/01/02 01:26:54;;;;;;;6.07;3.75;;;;;;;;;;5015752;28;20547;-78
2023/01/02 01:29:20;;;;;;;8.48;4.25;;;;;;;;;;5033279;28;20529;-78
2023/01/02 01:31:46;;;;;;;7.10;3.92;;;;;;;;;;5033398;28;20057;-78
2023/01/02 01:34:12;;;;;;;6.88;3.83;;;;;;;;;;5016059;28;20502;-78
2023/01/02 01:36:38;;;;;;;8.27;4.70;;;;;;;;;;5015783;28;20081;-78
2023/01/02 01:39:04;;;;;;;8.25;4.85;;;;;;;;;;5033789;28;20041;-78
2023/01/02 01:41:30;;;;;;;8.30;4.82;;;;;;;;;;5033086;28;20045;-77
2023/01/02 01:44:00;;;;;;;8.48;4.85;;;;;;;;;;5015357;28;20050;-78
2023/01/02 01:46:29;;;;;;;6.57;4.75;;;;;;;;;;5033397;28;20132;-77
2023/01/02 01:49:03;;;;;;;8.40;5.07;;;;;;;;;;5032959;28;20072;-77
2023/01/02 01:51:30;;;;;;;9.00;5.47;;;;;;;;;;5033997;28;20179;-76
2023/01/02 01:53:59;;;;;;;7.90;5.45;;;;;;;;;;5021238;28;20343;-76
2023/01/02 01:56:26;;;;;;;10.10;5.70;;;;;;;;;;5037417;28;20045;-76
2023/01/02 01:58:52;;;;;;;12.40;6.20;;;;;;;;;;5037847;28;20048;-76
2023/01/02 02:01:18;;;;;;;10.20;6.82;;;;;;;;;;5037476;28;20045;-77
2023/01/02 02:03:46;;;;;;;12.13;6.80;;;;;;;;;;5036540;28;20045;-76
2023/01/02 02:06:12;;;;;;;12.30;7.05;;;;;;;;;;5023376;28;20052;-77
2023/01/02 02:08:57;;;;;;;10.02;6.45;;;;;;;;;;5036739;28;20129;-78
2023/01/02 02:11:23;;;;;;;11.02;7.10;;;;;;;;;;5018659;28;20054;-77
2023/01/02 02:13:50;;;;;;;12.65;7.57;;;;;;;;;;5036736;28;20049;-76
2023/01/02 02:16:16;;;;;;;11.52;7.32;;;;;;;;;;5036607;28;20049;-78
2023/01/02 02:18:47;;;;;;;9.38;6.70;;;;;;;;;;5036396;28;20049;-77
2023/01/02 02:21:16;;;;;;;10.50;7.07;;;;;;;;;;5036694;28;20049;-78
2023/01/02 02:24:09;;;;;;;10.93;7.40;;;;;;;;;;5036223;28;20041;-76
2023/01/02 02:26:53;;;;;;;10.07;7.03;;;;;;;;;;5020446;28;20053;-77
2023/01/02 02:29:38;;;;;;;9.95;6.88;;;;;;;;;;5018737;28;20144;-77
2023/01/02 02:32:10;;;;;;;11.50;7.07;;;;;;;;;;5036864;28;20077;-77
2023/01/02 02:34:43;;;;;;;10.85;6.72;;;;;;;;;;5037457;28;20045;-77
2023/01/02 02:37:17;;;;;;;10.32;7.03;;;;;;;;;;5056718;28;20102;-78
2023/01/02 02:39:53;;;;;;;9.93;7.00;;;;;;;;;;5038199;28;20049;-77
2023/01/02 02:42:31;;;;;;;13.20;7.80;;;;;;;;;;5036428;28;20081;-77
2023/01/02 02:45:15;;;;;;;12.73;7.72;;;;;;;;;;5036540;28;20042;-77
2023/01/02 02:48:00;;;;;;;14.57;8.98;;;;;;;;;;5035874;28;20045;-77
2023/01/02 02:50:31;;;;;;;13.32;9.10;;;;;;;;;;5035921;28;20477;-77
2023/01/02 02:53:05;;;;;;;15.60;10.25;;;;;;;;;;5036116;28;20050;-78
2023/01/02 02:55:50;;;;;;;16.13;10.70;;;;;;;;;;5036630;28;20045;-77
2023/01/02 02:58:16;;;;;;;19.58;12.20;;;;;;;;;;5036394;28;20041;-77
2023/01/02 03:00:42;;;;;;;19.23;12.38;;;;;;;;;;5037032;28;20051;-78
2023/01/02 03:03:19;;;;;;;21.85;13.27;;;;;;;;;;5035261;28;20046;-79
2023/01/02 03:05:54;;;;;;;23.65;14.45;;;;;;;;;;5037174;28;20074;-78
2023/01/02 03:08:27;;;;;;;23.90;14.48;;;;;;;;;;5040333;28;20072;-78
2023/01/02 03:10:57;;;;;;;25.88;14.85;;;;;;;;;;5040997;28;20064;-78
2023/01/02 03:13:29;;;;;;;31.90;17.08;;;;;;;;;;5041103;28;20129;-78
2023/01/02 03:15:55;;;;;;;29.65;16.30;;;;;;;;;;5041181;28;20048;-78
2023/01/02 03:18:21;;;;;;;31.63;18.35;;;;;;;;;;5041136;28;20088;-79
2023/01/02 03:20:55;;;;;;;29.65;17.38;;;;;;;;;;5040767;28;20050;-78
2023/01/02 03:23:23;;;;;;;31.15;18.73;;;;;;;;;;5041051;28;20378;-79
2023/01/02 03:25:50;;;;;;;31.02;19.58;;;;;;;;;;5040922;28;20386;-78
2023/01/02 03:28:19;;;;;;;34.10;20.05;;;;;;;;;;5040744;28;20048;-78
2023/01/02 03:30:46;;;;;;;36.10;20.10;;;;;;;;;;5040952;28;20108;-78
2023/01/02 03:33:22;;;;;;;37.70;20.52;;;;;;;;;;5040466;28;20049;-79
2023/01/02 03:35:50;;;;;;;34.33;19.38;;;;;;;;;;5040745;28;20045;-79
2023/01/02 03:38:27;;;;;;;35.28;20.60;;;;;;;;;;5040751;28;20049;-78
2023/01/02 03:41:16;;;;;;;35.80;20.67;;;;;;;;;;5041136;28;20084;-79
2023/01/02 03:43:43;;;;;;;39.47;20.67;;;;;;;;;;5039206;28;20041;-79
2023/01/02 03:46:17;;;;;;;34.42;20.30;;;;;;;;;;5031803;28;20080;-78
2023/01/02 03:48:45;;;;;;;34.88;19.35;;;;;;;;;;5034161;28;20052;-78
2023/01/02 03:51:11;;;;;;;40.15;20.67;;;;;;;;;;5051506;28;20493;-79
2023/01/02 03:53:38;;;;;;;37.47;20.00;;;;;;;;;;5064532;28;20127;-79
2023/01/02 03:56:04;;;;;;;34.95;19.90;;;;;;;;;;5062565;28;20116;-79
2023/01/02 03:58:46;;;;;;;33.60;18.15;;;;;;;;;;5051259;28;20045;-78
2023/01/02 04:01:17;;;;;;;31.13;19.60;;;;;;;;;;5037813;28;20172;-79
2023/01/02 04:03:49;;;;;;;34.53;19.30;;;;;;;;;;5039574;28;20073;-78
2023/01/02 04:06:17;;;;;;;36.08;18.90;;;;;;;;;;5041685;28;20053;-78
2023/01/02 04:08:46;;;;;;;36.60;19.27;;;;;;;;;;5041637;28;20128;-79
2023/01/02 04:11:14;;;;;;;38.92;18.30;;;;;;;;;;5038889;28;20101;-79
2023/01/02 04:13:48;;;;;;;34.10;18.23;;;;;;;;;;5038489;28;20042;-79
2023/01/02 04:16:17;;;;;;;31.27;17.45;;;;;;;;;;5037780;28;20042;-79
2023/01/02 04:18:46;;;;;;;30.73;16.52;;;;;;;;;;5038826;28;20112;-79
2023/01/02 04:21:15;;;;;;;33.05;18.30;;;;;;;;;;5033742;28;20386;-79
2023/01/02 04:23:50;;;;;;;31.38;16.52;;;;;;;;;;5017467;28;20169;-79
2023/01/02 04:26:36;;;;;;;32.87;17.00;;;;;;;;;;5018281;28;20049;-78
2023/01/02 04:29:02;;;;;;;28.55;15.88;;;;;;;;;;5034184;28;20052;-77
2023/01/02 04:31:49;;;;;;;24.75;15.23;;;;;;;;;;5034441;28;20041;-76
2023/01/02 04:34:15;;;;;;;28.33;15.77;;;;;;;;;;5034609;28;20053;-77
2023/01/02 04:36:42;;;;;;;23.98;14.90;;;;;;;;;;5034237;28;20053;-76
2023/01/02 04:39:08;;;;;;;27.83;15.60;;;;;;;;;;5034356;28;20073;-77
2023/01/02 04:41:34;;;;;;;26.70;16.13;;;;;;;;;;5034256;28;20042;-77
2023/01/02 04:44:00;;;;;;;27.13;15.93;;;;;;;;;;5034083;28;20547;-76
2023/01/02 04:46:27;;;;;;;27.55;16.15;;;;;;;;;;5030004;28;20454;-76
2023/01/02 04:48:54;;;;;;;27.02;14.65;;;;;;;;;;4996409;28;20042;-76
2023/01/02 04:51:20;;;;;;;24.73;14.70;;;;;;;;;;4980558;28;20052;-77
2023/01/02 04:53:47;;;;;;;23.15;13.98;;;;;;;;;;5014082;28;20418;-76
2023/01/02 04:56:13;;;;;;;24.30;14.93;;;;;;;;;;5013909;28;20037;-77
2023/01/02 04:58:40;;;;;;;20.00;13.48;;;;;;;;;;5013897;28;20088;-76
2023/01/02 05:01:10;;;;;;;18.00;12.52;;;;;;;;;;5013740;28;20046;-76
2023/01/02 05:03:39;;;;;;;18.55;12.07;;;;;;;;;;5031747;28;20041;-76
2023/01/02 05:06:05;;;;;;;19.77;11.35;;;;;;;;;;5016446;28;20120;-77
2023/01/02 05:08:31;;;;;;;15.77;10.60;;;;;;;;;;5033075;28;20501;-76
2023/01/02 05:10:57;;;;;;;16.88;10.93;;;;;;;;;;5032596;28;20094;-77
2023/01/02 05:13:23;;;;;;;15.40;10.10;;;;;;;;;;5033455;28;20041;-77
2023/01/02 05:15:56;;;;;;;13.65;10.27;;;;;;;;;;5033476;28;20045;-77
2023/01/02 05:18:22;;;;;;;15.88;10.70;;;;;;;;;;5033391;28;20060;-77
2023/01/02 05:20:48;;;;;;;13.88;9.93;;;;;;;;;;5015677;28;20045;-77
2023/01/02 05:25:59;;;;;;;12.48;9.20;;;;;;;;;;5023767;28;20053;-77
2023/01/02 05:28:25;;;;;;;13.88;9.60;;;;;;;;;;5021973;28;20098;-77
2023/01/02 05:30:51;;;;;;;12.40;8.95;;;;;;;;;;5015561;28;20128;-77
2023/01/02 05:33:17;;;;;;;12.93;9.63;;;;;;;;;;5015863;28;20061;-77
2023/01/02 05:35:43;;;;;;;12.30;9.02;;;;;;;;;;5015620;28;20046;-78
2023/01/02 05:38:09;;;;;;;13.45;8.90;;;;;;;;;;5033011;28;20053;-78
2023/01/02 05:40:35;;;;;;;12.30;9.02;;;;;;;;;;5032193;28;20042;-77
2023/01/02 05:43:01;;;;;;;12.77;9.25;;;;;;;;;;5033321;28;20072;-78
2023/01/02 05:45:27;;;;;;;14.60;10.32;;;;;;;;;;5033040;28;20398;-78
2023/01/02 05:47:53;;;;;;;17.77;10.60;;;;;;;;;;5033616;28;20049;-78
2023/01/02 05:50:19;;;;;;;16.15;8.70;;;;;;;;;;5033393;28;20132;-78
2023/01/02 05:52:45;;;;;;;15.13;7.70;;;;;;;;;;5015616;28;20061;-78
2023/01/02 05:55:11;;;;;;;17.33;7.70;;;;;;;;;;5016882;28;20050;-79
2023/01/02 05:57:37;;;;;;;14.77;6.25;;;;;;;;;;5000103;28;20389;-79
2023/01/02 06:00:03;;;;;;;12.77;5.93;;;;;;;;;;4996651;28;20062;-79
2023/01/02 06:02:29;;;;;;;11.15;4.82;;;;;;;;;;4995831;28;20046;-78
2023/01/02 06:04:55;;;;;;;8.77;3.97;;;;;;;;;;4979469;28;20049;-78
2023/01/02 06:07:21;;;;;;;7.97;3.80;;;;;;;;;;5013440;28;20045;-78
2023/01/02 06:09:47;;;;;;;8.40;3.30;;;;;;;;;;5018653;28;20600;-77
2023/01/02 06:12:13;;;;;;;7.30;2.53;;;;;;;;;;4995304;28;20125;-77
2023/01/02 06:14:39;;;;;;;4.13;2.05;;;;;;;;;;5013022;28;20046;-77
2023/01/02 06:17:05;;;;;;;5.22;2.03;;;;;;;;;;4995269;28;20053;-78
2023/01/02 06:19:32;;;;;;;4.72;1.80;;;;;;;;;;5028243;28;20541;-78
2023/01/02 06:21:58;;;;;;;5.38;1.70;;;;;;;;;;5032657;28;20060;-78
2023/01/02 06:24:24;;;;;;;3.75;1.75;;;;;;;;;;5015015;28;20057;-78
2023/01/02 06:26:50;;;;;;;7.07;1.80;;;;;;;;;;5032836;28;20044;-78
2023/01/02 06:29:16;;;;;;;3.60;1.52;;;;;;;;;;5015095;28;20125;-77
2023/01/02 06:31:42;;;;;;;2.42;1.60;;;;;;;;;;5032539;28;20409;-77
2023/01/02 06:34:09;;;;;;;6.05;1.90;;;;;;;;;;5014651;28;20092;-77
2023/01/02 06:36:35;;;;;;;5.72;2.00;;;;;;;;;;5032387;28;20489;-77
2023/01/02 06:39:01;;;;;;;2.85;1.50;;;;;;;;;;5035483;28;20056;-77
2023/01/02 06:41:27;;;;;;;3.00;1.50;;;;;;;;;;5036080;28;20034;-77
2023/01/02 06:43:53;;;;;;;3.97;1.40;;;;;;;;;;5036075;28;20048;-77
2023/01/02 06:46:20;;;;;;;3.47;1.52;;;;;;;;;;5035677;28;20041;-77
2023/01/02 06:48:47;;;;;;;2.45;1.30;;;;;;;;;;5035823;28;20042;-77
2023/01/02 06:51:14;;;;;;;4.53;1.60;;;;;;;;;;5035970;28;20049;-76
2023/01/02 06:53:40;;;;;;;6.53;1.80;;;;;;;;;;5035770;28;20046;-76
2023/01/02 06:56:07;;;;;;;4.78;1.80;;;;;;;;;;5034840;28;20069;-76
2023/01/02 06:58:34;;;;;;;4.00;1.73;;;;;;;;;;5035792;28;20128;-77
2023/01/02 07:01:03;;;;;;;7.50;2.08;;;;;;;;;;5033634;28;20098;-77
2023/01/02 07:03:29;;;;;;;4.80;2.00;;;;;;;;;;5036057;28;20088;-78
2023/01/02 07:05:59;;;;;;;6.03;2.25;;;;;;;;;;5035011;28;20045;-77
2023/01/02 07:08:25;;;;;;;3.85;1.70;;;;;;;;;;5037671;28;20058;-76
2023/01/02 07:10:51;;;;;;;5.70;1.90;;;;;;;;;;5039287;28;20041;-77
2023/01/02 07:13:17;;;;;;;7.03;1.83;;;;;;;;;;5012259;28;20409;-77
2023/01/02 07:15:43;;;;;;;3.83;1.90;;;;;;;;;;5038122;28;20069;-77
2023/01/02 07:18:09;;;;;;;4.28;1.73;;;;;;;;;;5017901;28;20049;-77
2023/01/02 07:20:35;;;;;;;4.43;1.80;;;;;;;;;;5017504;28;20056;-77
2023/01/02 07:23:01;;;;;;;5.72;2.00;;;;;;;;;;5035739;28;20046;-78
2023/01/02 07:25:27;;;;;;;6.45;2.00;;;;;;;;;;5017848;28;20076;-78
2023/01/02 07:27:53;;;;;;;6.75;2.00;;;;;;;;;;5018316;28;20042;-77
2023/01/02 07:30:19;;;;;;;4.32;1.83;;;;;;;;;;5002564;28;20049;-78
2023/01/02 07:32:45;;;;;;;6.85;2.20;;;;;;;;;;4998850;28;20109;-78
2023/01/02 07:35:11;;;;;;;4.95;1.90;;;;;;;;;;5020951;28;20056;-78
2023/01/02 07:37:37;;;;;;;6.18;2.03;;;;;;;;;;5035627;28;20042;-78
2023/01/02 07:40:04;;;;;;;5.82;1.83;;;;;;;;;;5036661;28;20501;-79
2023/01/02 07:42:30;;;;;;;6.05;2.35;;;;;;;;;;5045863;28;20037;-79
2023/01/02 07:44:56;;;;;;;6.57;2.00;;;;;;;;;;5003773;28;20105;-79
2023/01/02 07:47:22;;;;;;;4.78;1.80;;;;;;;;;;5019978;28;20136;-79
2023/01/02 07:49:48;;;;;;;6.40;1.90;;;;;;;;;;5004800;28;20046;-78
2023/01/02 07:52:14;;;;;;;5.35;1.73;;;;;;;;;;5004342;28;20061;-79
2023/01/02 07:54:40;;;;;;;4.75;1.90;;;;;;;;;;5026704;28;20405;-79
2023/01/02 07:57:06;;;;;;;8.10;2.35;;;;;;;;;;5043806;28;20045;-80
2023/01/02 07:59:32;;;;;;;5.68;2.10;;;;;;;;;;5019366;28;20084;-79
2023/01/02 08:01:58;;;;;;;6.97;2.33;;;;;;;;;;5016138;28;20053;-79
2023/01/02 08:04:25;;;;;;;5.28;1.60;;;;;;;;;;4999247;28;20460;-79
2023/01/02 08:06:51;;;;;;;4.15;1.60;;;;;;;;;;5013661;28;20481;-79
2023/01/02 08:09:17;;;;;;;4.50;1.60;;;;;;;;;;5016909;28;20410;-79
2023/01/02 08:11:43;;;;;;;5.18;1.70;;;;;;;;;;5027944;28;20401;-79
2023/01/02 08:14:09;;;;;;;4.28;1.63;;;;;;;;;;5035085;28;20447;-79
2023/01/02 08:16:35;;;;;;;5.32;2.00;;;;;;;;;;5002065;28;20053;-79
2023/01/02 08:19:01;;;;;;;6.40;2.25;;;;;;;;;;5016007;28;20046;-78
2023/01/02 08:21:27;;;;;;;5.20;1.85;;;;;;;;;;5017628;28;20045;-79
2023/01/02 08:23:56;;;;;;;6.80;1.88;;;;;;;;;;5033973;28;20404;-78
2023/01/02 08:26:22;;;;;;;3.88;1.90;;;;;;;;;;5017055;28;20482;-79
2023/01/02 08:28:49;;;;;;;4.30;1.85;;;;;;;;;;5016736;28;20053;-79
2023/01/02 08:31:16;;;;;;;6.78;2.15;;;;;;;;;;5013334;28;20143;-78
2023/01/02 08:33:42;;;;;;;6.50;2.00;;;;;;;;;;5014715;28;20056;-78
2023/01/02 08:36:08;;;;;;;4.95;1.55;;;;;;;;;;4993511;28;20420;-81
2023/01/02 08:38:35;;;;;;;2.92;1.60;;;;;;;;;;5033392;28;20041;-78
2023/01/02 08:41:01;;;;;;;5.63;1.65;;;;;;;;;;5014572;28;20045;-77
2023/01/02 08:43:27;;;;;;;3.22;1.67;;;;;;;;;;5031809;28;20111;-78
2023/01/02 08:45:53;;;;;;;5.85;1.70;;;;;;;;;;5034436;28;20430;-78
2023/01/02 08:48:19;;;;;;;4.18;1.67;;;;;;;;;;5033789;28;20103;-78
2023/01/02 08:50:46;;;;;;;5.22;1.98;;;;;;;;;;5033707;28;20393;-79
2023/01/02 08:53:12;;;;;;;6.38;2.15;;;;;;;;;;5033864;28;20130;-79
2023/01/02 08:55:38;;;;;;;5.65;2.08;;;;;;;;;;5046935;28;20048;-79
2023/01/02 08:58:04;;;;;;;4.90;2.47;;;;;;;;;;4993595;28;20037;-79
2023/01/02 09:00:30;;;;;;;6.32;2.60;;;;;;;;;;5015992;28;20059;-78
2023/01/02 09:02:56;;;;;;;6.35;2.67;;;;;;;;;;5034050;28;20148;-78
2023/01/02 09:05:22;;;;;;;3.22;1.95;;;;;;;;;;5033897;28;20466;-77
2023/01/02 09:07:48;;;;;;;4.00;1.90;;;;;;;;;;5033841;28;20498;-78
2023/01/02 09:10:14;;;;;;;5.45;2.33;;;;;;;;;;5035518;28;20037;-80
2023/01/02 09:12:40;;;;;;;5.40;2.20;;;;;;;;;;5017845;28;20049;-78
2023/01/02 09:15:06;;;;;;;4.13;2.10;;;;;;;;;;5033412;28;20494;-79
2023/01/02 09:17:32;;;;;;;6.20;2.50;;;;;;;;;;5026854;28;20140;-79
2023/01/02 09:19:58;;;;;;;5.18;2.63;;;;;;;;;;5014259;28;20117;-79
2023/01/02 09:22:24;;;;;;;7.72;2.60;;;;;;;;;;5013855;28;20046;-79
2023/01/02 09:24:50;;;;;;;5.32;2.40;;;;;;;;;;5012560;28;20046;-80
2023/01/02 09:27:16;;;;;;;7.28;2.50;;;;;;;;;;5011466;28;20045;-79
2023/01/02 09:29:42;;;;;;;5.20;2.58;;;;;;;;;;5013839;28;20166;-79
2023/01/02 09:32:08;;;;;;;6.43;2.55;;;;;;;;;;4997783;28;20467;-79
2023/01/02 09:34:34;;;;;;;5.07;2.40;;;;;;;;;;5016256;28;20052;-79
2023/01/02 09:37:00;;;;;;;6.93;2.30;;;;;;;;;;5012451;28;20398;-79
2023/01/02 09:39:26;;;;;;;6.63;2.30;;;;;;;;;;5013720;28;20065;-80
2023/01/02 09:41:53;;;;;;;4.75;2.08;;;;;;;;;;5005842;28;20573;-79
2023/01/02 09:44:22;;;;;;;5.85;2.53;;;;;;;;;;5009750;28;20078;-79
2023/01/02 09:46:48;;;;;;;4.78;2.15;;;;;;;;;;5007875;28;20529;-79
2023/01/02 09:49:18;;;;;;;5.95;2.63;;;;;;;;;;5012247;28;20413;-79
2023/01/02 09:51:46;;;;;;;4.22;2.17;;;;;;;;;;5012608;28;20046;-79
2023/01/02 09:54:42;;;;;;;5.40;2.63;;;;;;;;;;5010649;28;20064;-79
2023/01/02 09:57:14;;;;;;;3.75;1.70;;;;;;;;;;5003240;28;20052;-80
2023/01/02 09:59:52;;;;;;;5.70;2.00;;;;;;;;;;5014962;28;20124;-82
2023/01/02 10:02:30;;;;;;;2.58;1.90;;;;;;;;;;5014274;28;20057;-82
2023/01/02 10:05:19;;;;;;;3.40;1.98;;;;;;;;;;5015270;28;20042;-77
2023/01/02 10:07:52;;;;;;;3.95;2.00;;;;;;;;;;4960761;28;20066;-77
2023/01/02 10:10:20;;;;;;;3.95;1.95;;;;;;;;;;4968650;28;20058;-78
2023/01/02 10:13:05;;;;;;;2.58;2.05;;;;;;;;;;4955854;28;20098;-78
2023/01/02 10:15:31;;;;;;;3.90;1.88;;;;;;;;;;4957840;29;20051;-80
2023/01/02 10:18:04;;;;;;;3.97;2.10;;;;;;;;;;4957186;28;20069;-79
2023/01/02 10:20:35;;;;;;;5.72;2.28;;;;;;;;;;4956885;29;20061;-81
2023/01/02 10:23:08;;;;;;;4.32;2.45;;;;;;;;;;4941122;29;20144;-78
2023/01/02 10:25:43;;;;;;;4.10;2.20;;;;;;;;;;4957081;29;20511;-78
2023/01/02 10:28:27;;;;;;;6.55;2.20;;;;;;;;;;4958277;29;20051;-78
2023/01/02 10:31:01;;;;;;;5.85;2.20;;;;;;;;;;4962703;29;20050;-82
2023/01/02 10:33:44;;;;;;;7.50;2.60;;;;;;;;;;4960821;28;20055;-78
2023/01/02 10:36:20;;;;;;;6.13;2.42;;;;;;;;;;4964558;28;20130;-79
2023/01/02 10:38:46;;;;;;;5.40;2.70;;;;;;;;;;4957331;28;20051;-78
2023/01/02 10:41:12;;;;;;;5.43;2.47;;;;;;;;;;4955884;29;20474;-77
2023/01/02 10:43:38;;;;;;;7.95;2.80;;;;;;;;;;4959568;28;20451;-77
2023/01/02 10:46:04;;;;;;;6.22;2.60;;;;;;;;;;5024037;28;20539;-76
2023/01/02 10:48:32;;;;;;;5.97;2.80;;;;;;;;;;5015812;28;20042;-77
2023/01/02 10:51:01;;;;;;;7.25;2.90;;;;;;;;;;5011354;28;20049;-77
2023/01/02 10:53:36;;;;;;;5.70;2.35;;;;;;;;;;4990668;28;20054;-77
2023/01/02 10:56:06;;;;;;;3.75;2.30;;;;;;;;;;5016349;28;20516;-77
2023/01/02 10:58:33;;;;;;;9.85;2.70;;;;;;;;;;5013432;28;20049;-76
2023/01/02 11:01:17;;;;;;;4.35;2.40;;;;;;;;;;5013298;28;20042;-77
2023/01/02 11:03:43;;;;;;;6.28;2.75;;;;;;;;;;5017904;28;20069;-76
2023/01/02 11:06:38;;;;;;;6.57;2.72;;;;;;;;;;5015897;28;20038;-77
2023/01/02 11:09:17;;;;;;;4.90;2.00;;;;;;;;;;5009768;28;20490;-77
2023/01/02 11:11:50;;;;;;;7.60;2.28;;;;;;;;;;4997065;28;20077;-77
2023/01/02 11:14:20;;;;;;;5.22;1.98;;;;;;;;;;4997077;28;20047;-77
2023/01/02 11:16:46;;;;;;;6.30;2.25;;;;;;;;;;4997603;28;20042;-77
2023/01/02 11:19:19;;;;;;;6.70;2.22;;;;;;;;;;5040260;28;20065;-77
2023/01/02 11:21:47;;;;;;;8.70;2.20;;;;;;;;;;5028921;28;20119;-77
2023/01/02 11:24:18;;;;;;;7.20;2.60;;;;;;;;;;5034194;28;20038;-77
2023/01/02 11:26:45;;;;;;;15.18;4.20;;;;;;;;;;5035525;28;20056;-77
2023/01/02 11:29:31;;;;;;;9.10;4.03;;;;;;;;;;5034798;28;20505;-77
2023/01/02 11:32:00;;;;;;;10.07;3.80;;;;;;;;;;5035236;28;20045;-77
2023/01/02 11:34:33;;;;;;;4.97;2.20;;;;;;;;;;5035208;28;20088;-77
2023/01/02 11:37:11;;;;;;;6.97;2.00;;;;;;;;;;5035169;28;20038;-77
2023/01/02 11:39:39;;;;;;;6.80;2.22;;;;;;;;;;5035310;28;20444;-77
2023/01/02 11:45:25;;;;;;;7.57;2.20;;;;;;;;;;4990353;28;20057;-79
2023/01/02 11:47:57;;;;;;;5.38;2.13;;;;;;;;;;5026517;28;20091;-77
2023/01/02 11:50:28;;;;;;;8.68;2.00;;;;;;;;;;5037662;28;20049;-77
2023/01/02 11:53:16;;;;;;;7.03;2.00;;;;;;;;;;5034878;28;20128;-77
2023/01/02 11:56:00;;;;;;;6.82;2.10;;;;;;;;;;5030870;28;20037;-77
2023/01/02 11:58:40;;;;;;;5.05;1.98;;;;;;;;;;5020323;28;20103;-77
2023/01/02 12:01:22;;;;;;;7.72;2.55;;;;;;;;;;5032134;28;20125;-77
2023/01/02 12:03:48;;;;;;;8.52;2.50;;;;;;;;;;5034654;28;20042;-77
2023/01/02 12:06:29;;;;;;;7.28;2.55;;;;;;;;;;5028959;28;20045;-77
2023/01/02 12:08:58;;;;;;;6.97;1.95;;;;;;;;;;5034696;28;20095;-77
2023/01/02 12:11:42;;;;;;;7.80;2.33;;;;;;;;;;5034872;28;20042;-77
2023/01/02 12:14:17;;;;;;;7.90;2.25;;;;;;;;;;5025485;28;20133;-77
2023/01/02 12:16:46;;;;;;;9.95;2.50;;;;;;;;;;5026584;28;20394;-77
2023/01/02 12:19:15;;;;;;;6.18;2.13;;;;;;;;;;5033617;28;20053;-76
2023/01/02 12:22:00;;;;;;;9.65;2.53;;;;;;;;;;5034300;28;20049;-76
2023/01/02 12:24:33;;;;;;;12.68;2.65;;;;;;;;;;5034333;28;20048;-76
2023/01/02 12:27:06;;;;;;;11.30;3.20;;;;;;;;;;5031929;28;20041;-78
2023/01/02 12:29:38;;;;;;;6.55;2.45;;;;;;;;;;5028571;28;20111;-77
2023/01/02 12:32:22;;;;;;;9.48;2.30;;;;;;;;;;5033926;28;20388;-77
2023/01/02 12:35:00;;;;;;;11.13;2.63;;;;;;;;;;5028315;28;20045;-77
2023/01/02 12:37:26;;;;;;;10.65;2.67;;;;;;;;;;5022342;28;20362;-77
2023/01/02 12:40:10;;;;;;;11.35;2.83;;;;;;;;;;5032768;28;20501;-77
2023/01/02 12:43:02;;;;;;;12.18;2.67;;;;;;;;;;5034276;28;20076;-77
2023/01/02 12:45:33;;;;;;;12.50;2.70;;;;;;;;;;5013807;28;20060;-77
2023/01/02 12:48:06;;;;;;;12.13;3.10;;;;;;;;;;5021322;28;20049;-77
2023/01/02 12:50:38;;;;;;;11.82;3.13;;;;;;;;;;5035292;28;20046;-77
2023/01/02 12:53:23;;;;;;;11.57;3.28;;;;;;;;;;5033836;28;20120;-77
2023/01/02 12:55:54;;;;;;;15.57;4.20;;;;;;;;;;5033765;28;20505;-77
2023/01/02 12:58:24;;;;;;;9.45;3.15;;;;;;;;;;5022702;28;20128;-77
2023/01/02 13:00:50;;;;;;;9.65;2.47;;;;;;;;;;5016296;28;20042;-78
2023/01/02 13:03:19;;;;;;;8.35;2.60;;;;;;;;;;5014611;28;20089;-77
2023/01/02 13:05:51;;;;;;;12.60;2.90;;;;;;;;;;5029563;28;20045;-77
2023/01/02 13:08:21;;;;;;;13.23;2.97;;;;;;;;;;5034130;28;20045;-77
2023/01/02 13:10:47;;;;;;;11.93;3.33;;;;;;;;;;5034695;28;20041;-80
2023/01/02 13:13:14;;;;;;;12.43;3.17;;;;;;;;;;5034117;28;20056;-77
2023/01/02 13:15:42;;;;;;;14.10;3.58;;;;;;;;;;5033411;28;20478;-77
2023/01/02 13:18:40;;;;;;;10.07;2.92;;;;;;;;;;5033102;28;20060;-79
2023/01/02 13:21:12;;;;;;;9.30;3.20;;;;;;;;;;5010589;28;20112;-77
2023/01/02 13:23:40;;;;;;;7.95;3.00;;;;;;;;;;5000583;28;20042;-77
2023/01/02 13:26:06;;;;;;;7.78;2.83;;;;;;;;;;5013929;28;20046;-79
2023/01/02 13:28:32;;;;;;;12.40;3.13;;;;;;;;;;4996275;28;20045;-77
2023/01/02 13:31:05;;;;;;;10.00;3.20;;;;;;;;;;5013417;28;20153;-77
2023/01/02 13:33:34;;;;;;;10.05;2.90;;;;;;;;;;5014119;28;20048;-77
2023/01/02 13:36:01;;;;;;;11.20;3.30;;;;;;;;;;5013396;28;20046;-77
2023/01/02 13:38:28;;;;;;;14.18;3.10;;;;;;;;;;5013820;28;20050;-77
2023/01/02 13:40:58;;;;;;;12.25;3.15;;;;;;;;;;5014247;28;20038;-77
2023/01/02 13:43:27;;;;;;;11.77;3.28;;;;;;;;;;4996434;28;20387;-77
2023/01/02 13:45:54;;;;;;;9.52;3.22;;;;;;;;;;5014445;28;20069;-77
2023/01/02 13:48:26;;;;;;;12.45;3.40;;;;;;;;;;5016754;28;20085;-77
2023/01/02 13:51:21;;;;;;;14.38;3.28;;;;;;;;;;5018148;28;20092;-77
2023/01/02 13:53:49;;;;;;;8.10;3.00;;;;;;;;;;4989988;28;20098;-76
2023/01/02 13:56:16;;;;;;;14.93;3.55;;;;;;;;;;5008286;28;20045;-77
2023/01/02 13:58:49;;;;;;;12.50;4.47;;;;;;;;;;5016910;28;20092;-77
2023/01/02 14:01:22;;;;;;;8.68;3.00;;;;;;;;;;4999869;28;20390;-77
2023/01/02 14:03:48;;;;;;;10.05;3.22;;;;;;;;;;4999612;28;20042;-77
2023/01/02 14:06:26;;;;;;;16.55;3.58;;;;;;;;;;5012696;28;20034;-77
2023/01/02 14:09:05;;;;;;;11.75;3.45;;;;;;;;;;4998681;28;20129;-77
2023/01/02 14:11:32;;;;;;;9.88;3.75;;;;;;;;;;5009633;28;20033;-77
2023/01/02 14:13:59;;;;;;;12.82;3.50;;;;;;;;;;4977639;28;20394;-76
2023/01/02 14:16:25;;;;;;;10.30;4.20;;;;;;;;;;5033196;28;20045;-75
2023/01/02 14:19:10;;;;;;;15.57;3.80;;;;;;;;;;5039266;28;20131;-79
2023/01/02 14:21:37;;;;;;;9.25;3.70;;;;;;;;;;5036368;28;20049;-77
2023/01/02 14:24:04;;;;;;;10.75;4.00;;;;;;;;;;5035993;28;20481;-75
2023/01/02 14:26:35;;;;;;;11.98;3.92;;;;;;;;;;5036434;28;20042;-76
2023/01/02 14:29:09;;;;;;;10.18;3.90;;;;;;;;;;5036666;28;20046;-76
2023/01/02 14:31:35;;;;;;;10.23;4.00;;;;;;;;;;5036018;28;20045;-75
2023/01/02 14:34:02;;;;;;;13.20;4.45;;;;;;;;;;5035779;28;20049;-75
2023/01/02 14:36:40;;;;;;;10.80;4.10;;;;;;;;;;5036934;28;20042;-75
2023/01/02 14:39:06;;;;;;;13.07;4.47;;;;;;;;;;5037017;28;20375;-75
2023/01/02 14:44:33;;;;;;;13.68;4.60;;;;;;;;;;5026588;28;20395;-75
2023/01/02 14:46:59;;;;;;;11.82;4.72;;;;;;;;;;5017542;28;20121;-75
2023/01/02 14:49:25;;;;;;;11.15;4.30;;;;;;;;;;5001315;28;20081;-75
2023/01/02 14:51:57;;;;;;;12.30;4.30;;;;;;;;;;5035196;28;20048;-75
2023/01/02 14:54:25;;;;;;;9.68;4.43;;;;;;;;;;5036381;28;20056;-75
2023/01/02 14:56:56;;;;;;;15.07;5.30;;;;;;;;;;5036420;28;20041;-75
2023/01/02 14:59:26;;;;;;;10.88;4.53;;;;;;;;;;5036168;28;20081;-75